createdAt,value
2018-08-12T00:02:16.822Z,17.40
2018-08-12T00:04:45.003Z,17.40
2018-08-12T00:07:13.264Z,17.40
2018-08-12T00:09:41.463Z,17.30
2018-08-12T00:12:09.645Z,17.30
2018-08-12T00:14:38.784Z,17.30
2018-08-12T00:17:07.154Z,17.30
2018-08-12T00:19:35.401Z,17.30
2018-08-12T00:22:04.026Z,17.20
2018-08-12T00:24:32.231Z,17.20
2018-08-12T00:27:01.606Z,17.10
2018-08-12T00:29:30.131Z,17.00
2018-08-12T00:31:58.674Z,17.10
2018-08-12T00:34:26.887Z,17.00
2018-08-12T00:36:55.163Z,17.00
2018-08-12T00:39:23.404Z,17.00
2018-08-12T00:41:51.605Z,17.00
2018-08-12T00:44:20.368Z,16.90
2018-08-12T00:46:48.618Z,16.90
2018-08-12T00:49:16.918Z,16.80
2018-08-12T00:51:45.399Z,16.80
2018-08-12T00:54:13.879Z,16.70
2018-08-12T00:56:42.172Z,16.80
2018-08-12T00:59:10.448Z,16.60
2018-08-12T01:01:38.713Z,16.70
2018-08-12T01:04:07.325Z,16.70
2018-08-12T01:06:35.581Z,16.60
2018-08-12T01:09:07.846Z,16.70
2018-08-12T01:11:36.313Z,16.60
2018-08-12T01:14:04.563Z,16.60
2018-08-12T01:16:33.210Z,16.50
2018-08-12T01:19:01.765Z,16.40
2018-08-12T01:21:29.971Z,16.40
2018-08-12T01:23:58.456Z,16.40
2018-08-12T01:26:27.023Z,16.30
2018-08-12T01:28:55.379Z,16.40
2018-08-12T01:31:23.914Z,16.40
2018-08-12T01:33:52.460Z,16.20
2018-08-12T01:36:21.333Z,16.20
2018-08-12T01:38:49.608Z,16.10
2018-08-12T01:41:18.133Z,16.30
2018-08-12T01:43:46.722Z,16.10
2018-08-12T01:46:15.319Z,16.10
2018-08-12T01:48:43.840Z,16.20
2018-08-12T01:51:12.631Z,16.20
2018-08-12T01:53:40.876Z,16.10
2018-08-12T01:56:09.058Z,16.10
2018-08-12T01:58:37.282Z,16.10
2018-08-12T02:01:05.893Z,16.10
2018-08-12T02:03:34.471Z,16.10
2018-08-12T02:06:02.721Z,16.00
2018-08-12T02:08:30.935Z,16.00
2018-08-12T02:10:59.220Z,15.90
2018-08-12T02:13:27.795Z,15.90
2018-08-12T02:15:57.048Z,15.70
2018-08-12T02:18:25.263Z,15.80
2018-08-12T02:20:53.781Z,15.80
2018-08-12T02:23:21.974Z,15.70
2018-08-12T02:25:50.168Z,15.70
2018-08-12T02:28:18.325Z,15.70
2018-08-12T02:30:46.546Z,15.80
2018-08-12T02:33:15.620Z,15.80
2018-08-12T02:35:44.785Z,15.80
2018-08-12T02:38:13.357Z,15.80
2018-08-12T02:40:41.940Z,15.80
2018-08-12T02:43:10.449Z,15.80
2018-08-12T02:45:38.964Z,15.70
2018-08-12T02:48:07.150Z,15.60
2018-08-12T02:50:35.622Z,15.50
2018-08-12T02:53:03.943Z,15.50
2018-08-12T02:55:32.175Z,15.40
2018-08-12T02:58:00.342Z,15.30
2018-08-12T03:00:28.819Z,15.30
2018-08-12T03:02:57.050Z,15.30
2018-08-12T03:05:25.269Z,15.20
2018-08-12T03:07:53.500Z,15.20
2018-08-12T03:10:22.056Z,15.20
2018-08-12T03:12:50.232Z,15.20
2018-08-12T03:15:18.736Z,15.20
2018-08-12T03:17:46.946Z,15.30
2018-08-12T03:20:15.470Z,15.20
2018-08-12T03:22:43.968Z,15.20
2018-08-12T03:25:12.161Z,15.10
2018-08-12T03:27:40.379Z,15.10
2018-08-12T03:30:09.822Z,15.00
2018-08-12T03:32:38.264Z,15.00
2018-08-12T03:35:06.460Z,15.00
2018-08-12T03:37:34.646Z,15.00
2018-08-12T03:40:02.944Z,14.90
2018-08-12T03:42:31.755Z,14.90
2018-08-12T03:45:00.636Z,14.90
2018-08-12T03:47:31.016Z,14.90
2018-08-12T03:49:59.689Z,14.80
2018-08-12T03:52:28.220Z,14.80
2018-08-12T03:54:56.470Z,14.80
2018-08-12T03:57:25.259Z,14.80
2018-08-12T03:59:53.851Z,14.80
2018-08-12T04:02:22.398Z,14.80
2018-08-12T04:04:50.585Z,14.80
2018-08-12T04:07:19.077Z,14.80
2018-08-12T04:09:47.508Z,14.80
2018-08-12T04:12:15.708Z,14.80
2018-08-12T04:19:43.536Z,14.70
2018-08-12T04:22:12.358Z,14.60
2018-08-12T04:24:40.840Z,14.60
2018-08-12T04:27:09.800Z,14.60
2018-08-12T04:29:37.952Z,14.60
2018-08-12T04:32:06.410Z,14.50
2018-08-12T04:34:34.874Z,14.50
2018-08-12T04:37:03.336Z,14.60
2018-08-12T04:39:31.605Z,14.60
2018-08-12T04:42:00.173Z,14.60
2018-08-12T04:44:28.791Z,14.50
2018-08-12T04:46:57.248Z,14.50
2018-08-12T04:49:25.720Z,14.50
2018-08-12T04:51:54.495Z,14.50
2018-08-12T04:54:23.000Z,14.60
2018-08-12T04:56:51.191Z,14.60
2018-08-12T04:59:19.344Z,14.70
2018-08-12T05:01:47.600Z,14.70
2018-08-12T05:04:16.409Z,14.80
2018-08-12T05:06:44.929Z,14.90
2018-08-12T05:09:13.164Z,15.00
2018-08-12T05:11:41.384Z,15.00
2018-08-12T05:14:09.565Z,15.00
2018-08-12T05:16:38.334Z,15.00
2018-08-12T05:19:06.822Z,15.00
2018-08-12T05:21:35.776Z,15.10
2018-08-12T05:24:10.893Z,15.10
2018-08-12T05:26:39.060Z,15.20
2018-08-12T05:29:07.586Z,15.30
2018-08-12T05:31:35.774Z,15.30
2018-08-12T05:34:03.986Z,15.40
2018-08-12T05:36:32.524Z,15.40
2018-08-12T05:39:01.248Z,15.50
2018-08-12T05:41:29.775Z,15.60
2018-08-12T05:43:57.971Z,15.60
2018-08-12T05:46:27.001Z,15.80
2018-08-12T05:48:55.801Z,15.90
2018-08-12T05:51:24.009Z,16.00
2018-08-12T05:53:52.476Z,16.00
2018-08-12T05:56:20.655Z,16.10
2018-08-12T05:58:48.906Z,16.20
2018-08-12T06:01:17.868Z,16.20
2018-08-12T06:03:46.437Z,16.30
2018-08-12T06:06:14.649Z,16.40
2018-08-12T06:08:42.918Z,16.60
2018-08-12T06:11:11.100Z,16.70
2018-08-12T06:13:39.323Z,16.80
2018-08-12T06:16:07.531Z,16.90
2018-08-12T06:18:36.015Z,16.90
2018-08-12T06:21:04.168Z,17.00
2018-08-12T06:23:32.676Z,17.20
2018-08-12T06:26:00.839Z,17.10
2018-08-12T06:28:29.293Z,17.10
2018-08-12T06:30:57.865Z,17.20
2018-08-12T06:33:26.051Z,17.20
2018-08-12T06:35:54.747Z,17.30
2018-08-12T06:38:22.973Z,17.40
2018-08-12T06:40:51.140Z,17.50
2018-08-12T06:43:19.334Z,17.70
2018-08-12T06:45:47.765Z,17.70
2018-08-12T06:48:16.196Z,17.80
2018-08-12T06:50:44.378Z,17.80
2018-08-12T06:53:12.656Z,18.00
2018-08-12T06:55:41.145Z,18.00
2018-08-12T06:58:09.365Z,18.10
2018-08-12T07:00:37.936Z,18.20
2018-08-12T07:03:06.633Z,18.30
2018-08-12T07:05:34.840Z,18.50
2018-08-12T07:08:03.036Z,18.50
2018-08-12T07:10:31.295Z,18.60
2018-08-12T07:12:59.819Z,18.70
2018-08-12T07:15:28.069Z,18.80
2018-08-12T07:17:56.275Z,18.90
2018-08-12T07:20:24.840Z,19.10
2018-08-12T07:22:53.087Z,19.20
2018-08-12T07:25:21.313Z,19.20
2018-08-12T07:27:49.870Z,19.30
2018-08-12T07:30:18.205Z,19.30
2018-08-12T07:32:46.404Z,19.40
2018-08-12T07:35:15.203Z,19.50
2018-08-12T07:37:43.513Z,19.50
2018-08-12T07:40:18.036Z,19.70
2018-08-12T07:42:47.472Z,19.80
2018-08-12T07:45:15.720Z,19.90
2018-08-12T07:47:44.866Z,19.90
2018-08-12T07:50:14.065Z,20.10
2018-08-12T07:52:43.560Z,20.20
2018-08-12T07:55:12.601Z,20.20
2018-08-12T07:57:41.632Z,20.40
2018-08-12T08:00:13.489Z,20.50
2018-08-12T08:02:42.001Z,20.70
2018-08-12T08:05:10.794Z,20.90
2018-08-12T08:07:39.623Z,21.00
2018-08-12T08:10:12.933Z,21.10
2018-08-12T08:12:41.859Z,21.20
2018-08-12T08:15:15.168Z,21.10
2018-08-12T08:17:44.149Z,21.30
2018-08-12T08:20:13.856Z,21.40
2018-08-12T08:22:42.320Z,21.50
2018-08-12T08:25:11.507Z,21.70
2018-08-12T08:27:40.171Z,21.70
2018-08-12T08:30:11.761Z,21.90
2018-08-12T08:32:40.696Z,22.00
2018-08-12T08:35:10.019Z,22.00
2018-08-12T08:37:38.321Z,22.00
2018-08-12T08:40:10.284Z,22.10
2018-08-12T08:42:38.535Z,22.40
2018-08-12T08:45:12.712Z,22.40
2018-08-12T08:47:42.094Z,22.50
2018-08-12T08:50:10.303Z,22.60
2018-08-12T08:52:39.014Z,22.70
2018-08-12T08:55:09.318Z,22.80
2018-08-12T08:57:37.949Z,23.00
2018-08-12T09:00:11.932Z,23.00
2018-08-12T09:02:41.850Z,23.10
2018-08-12T09:05:13.241Z,23.20
2018-08-12T09:07:41.652Z,23.30
2018-08-12T09:10:12.209Z,23.40
2018-08-12T09:12:40.781Z,23.50
2018-08-12T09:15:11.908Z,23.60
2018-08-12T09:17:40.809Z,23.80
2018-08-12T09:20:11.629Z,24.00
2018-08-12T09:22:40.670Z,24.10
2018-08-12T09:25:10.304Z,24.20
2018-08-12T09:27:38.818Z,24.10
2018-08-12T09:30:20.933Z,24.00
2018-08-12T09:32:49.740Z,24.20
2018-08-12T09:35:18.356Z,24.30
2018-08-12T09:37:46.853Z,24.50
2018-08-12T09:40:17.546Z,24.60
2018-08-12T09:42:46.704Z,24.80
2018-08-12T09:45:18.332Z,24.70
2018-08-12T09:47:46.760Z,24.80
2018-08-12T09:50:17.247Z,25.00
2018-08-12T09:52:46.493Z,25.20
2018-08-12T09:55:15.184Z,25.30
2018-08-12T09:57:43.560Z,25.70
2018-08-12T10:00:21.414Z,25.70
2018-08-12T10:02:51.356Z,25.80
2018-08-12T10:05:19.732Z,25.90
2018-08-12T10:07:48.480Z,25.90
2018-08-12T10:10:17.372Z,26.00
2018-08-12T10:12:45.777Z,26.10
2018-08-12T10:15:15.062Z,26.40
2018-08-12T10:17:45.061Z,26.50
2018-08-12T10:20:13.329Z,26.20
2018-08-12T10:22:42.065Z,26.10
2018-08-12T10:25:10.611Z,26.10
2018-08-12T10:27:38.823Z,26.30
2018-08-12T10:30:10.993Z,26.60
2018-08-12T10:32:39.372Z,26.90
2018-08-12T10:35:09.671Z,27.10
2018-08-12T10:37:38.084Z,27.30
2018-08-12T10:40:09.988Z,27.60
2018-08-12T10:42:38.929Z,27.60
2018-08-12T10:45:09.164Z,27.50
2018-08-12T10:47:37.625Z,27.50
2018-08-12T10:50:10.468Z,27.70
2018-08-12T10:52:39.746Z,27.70
2018-08-12T10:55:08.668Z,27.90
2018-08-12T10:57:37.585Z,28.00
2018-08-12T11:00:14.857Z,27.90
2018-08-12T11:02:43.465Z,28.10
2018-08-12T11:05:12.558Z,28.40
2018-08-12T11:07:41.400Z,28.30
2018-08-12T11:10:10.761Z,28.40
2018-08-12T11:12:39.234Z,28.50
2018-08-12T11:15:08.728Z,28.10
2018-08-12T11:17:37.661Z,27.90
2018-08-12T11:20:06.316Z,27.90
2018-08-12T11:22:34.592Z,28.00
2018-08-12T11:25:03.235Z,28.10
2018-08-12T11:27:32.024Z,28.30
2018-08-12T11:30:00.364Z,28.40
2018-08-12T11:32:29.364Z,28.70
2018-08-12T11:34:57.940Z,29.00
2018-08-12T11:37:26.131Z,29.20
2018-08-12T11:39:54.292Z,29.50
2018-08-12T11:42:22.518Z,29.70
2018-08-12T11:44:51.277Z,29.60
2018-08-12T11:47:20.133Z,29.40
2018-08-12T11:49:48.271Z,29.20
2018-08-12T11:52:16.794Z,29.20
2018-08-12T11:54:45.006Z,29.20
2018-08-12T11:57:13.365Z,29.10
2018-08-12T11:59:41.579Z,29.40
2018-08-12T12:02:10.624Z,29.50
2018-08-12T12:04:38.878Z,29.60
2018-08-12T12:07:07.452Z,29.50
2018-08-12T12:09:35.943Z,29.80
2018-08-12T12:12:04.904Z,29.90
2018-08-12T12:14:33.221Z,29.90
2018-08-12T12:17:08.236Z,29.90
2018-08-12T12:19:36.468Z,29.90
2018-08-12T12:22:04.962Z,30.20
2018-08-12T12:24:33.247Z,30.20
2018-08-12T12:27:01.727Z,30.10
2018-08-12T12:29:30.612Z,30.30
2018-08-12T12:31:59.149Z,30.40
2018-08-12T12:34:27.562Z,30.60
2018-08-12T12:36:56.376Z,30.60
2018-08-12T12:39:24.600Z,30.50
2018-08-12T12:41:52.805Z,30.40
2018-08-12T12:44:21.076Z,30.60
2018-08-12T12:46:49.577Z,30.80
2018-08-12T12:49:17.856Z,30.50
2018-08-12T12:51:46.336Z,30.40
2018-08-12T12:54:15.116Z,30.50
2018-08-12T12:56:43.851Z,30.40
2018-08-12T12:59:12.053Z,30.70
2018-08-12T13:01:40.806Z,31.30
2018-08-12T13:04:08.997Z,31.20
2018-08-12T13:06:37.186Z,31.30
2018-08-12T13:09:10.527Z,31.50
2018-08-12T13:11:39.697Z,31.60
2018-08-12T13:14:08.154Z,31.50
2018-08-12T13:16:36.987Z,31.50
2018-08-12T13:19:05.614Z,31.50
2018-08-12T13:21:34.029Z,31.60
2018-08-12T13:29:10.213Z,31.30
2018-08-12T13:31:39.150Z,31.00
2018-08-12T13:34:07.509Z,31.00
2018-08-12T13:36:36.353Z,31.20
2018-08-12T13:39:08.895Z,31.50
2018-08-12T13:41:37.197Z,31.40
2018-08-12T13:44:05.536Z,31.50
2018-08-12T13:46:35.269Z,32.10
2018-08-12T13:49:03.659Z,32.50
2018-08-12T13:51:32.064Z,32.90
2018-08-12T13:54:00.377Z,33.60
2018-08-12T13:56:28.853Z,34.20
2018-08-12T13:58:57.036Z,34.80
2018-08-12T14:01:25.896Z,35.80
2018-08-12T14:03:54.097Z,36.70
2018-08-12T14:06:22.265Z,37.80
2018-08-12T14:08:50.691Z,38.10
2018-08-12T14:11:18.870Z,38.30
2018-08-12T14:13:47.067Z,37.50
2018-08-12T14:16:15.902Z,37.80
2018-08-12T14:18:44.088Z,37.90
2018-08-12T14:21:12.343Z,38.50
2018-08-12T14:23:40.459Z,38.60
2018-08-12T14:26:08.630Z,39.00
2018-08-12T14:28:36.916Z,39.00
2018-08-12T14:31:06.063Z,39.10
2018-08-12T14:33:34.240Z,38.70
2018-08-12T14:36:02.803Z,37.70
2018-08-12T14:38:30.973Z,38.30
2018-08-12T14:40:59.207Z,38.50
2018-08-12T14:43:27.437Z,38.40
2018-08-12T14:45:56.008Z,38.60
2018-08-12T14:48:24.332Z,38.20
2018-08-12T14:50:52.840Z,38.40
2018-08-12T14:53:21.090Z,39.00
2018-08-12T14:55:49.459Z,39.40
2018-08-12T14:58:17.612Z,38.40
2018-08-12T15:00:46.024Z,38.40
2018-08-12T15:03:14.252Z,38.10
2018-08-12T15:05:43.223Z,38.30
2018-08-12T15:08:11.434Z,37.90
2018-08-12T15:10:40.132Z,38.00
2018-08-12T15:13:08.452Z,38.30
2018-08-12T15:15:36.947Z,38.30
2018-08-12T15:18:05.184Z,38.00
2018-08-12T15:20:33.402Z,37.80
2018-08-12T15:23:01.668Z,37.80
2018-08-12T15:25:29.937Z,38.30
2018-08-12T15:27:58.840Z,37.80
2018-08-12T15:30:27.192Z,37.50
2018-08-12T15:32:55.810Z,37.60
2018-08-12T15:35:24.032Z,38.30
2018-08-12T15:37:52.277Z,38.20
2018-08-12T15:40:21.049Z,38.00
2018-08-12T15:42:49.244Z,38.80
2018-08-12T15:45:18.268Z,38.80
2018-08-12T15:47:46.956Z,38.70
2018-08-12T15:50:15.368Z,38.70
2018-08-12T15:52:44.665Z,38.50
2018-08-12T15:55:13.303Z,38.90
2018-08-12T15:57:42.314Z,38.50
2018-08-12T16:00:20.555Z,38.60
2018-08-12T16:02:48.912Z,39.10
2018-08-12T16:05:17.336Z,39.10
2018-08-12T16:07:46.598Z,38.70
2018-08-12T16:10:18.889Z,39.00
2018-08-12T16:12:48.622Z,39.40
2018-08-12T16:15:17.183Z,38.80
2018-08-12T16:17:45.419Z,38.70
2018-08-12T16:20:13.712Z,39.00
2018-08-12T16:22:42.726Z,38.20
2018-08-12T16:25:14.564Z,38.10
2018-08-12T16:27:43.463Z,38.30
2018-08-12T16:30:13.767Z,38.20
2018-08-12T16:32:42.055Z,38.10
2018-08-12T16:35:12.276Z,38.10
2018-08-12T16:37:42.280Z,37.40
2018-08-12T16:40:13.129Z,37.40
2018-08-12T16:42:41.351Z,37.40
2018-08-12T16:45:11.745Z,37.40
2018-08-12T16:47:40.367Z,37.30
2018-08-12T16:50:09.848Z,37.10
2018-08-12T16:52:38.324Z,37.20
2018-08-12T16:55:13.062Z,36.90
2018-08-12T16:57:41.547Z,36.70
2018-08-12T17:00:16.431Z,36.80
2018-08-12T17:02:45.120Z,37.20
2018-08-12T17:05:16.890Z,36.80
2018-08-12T17:07:45.264Z,36.60
2018-08-12T17:10:14.747Z,36.50
2018-08-12T17:12:43.019Z,36.50
2018-08-12T17:15:14.189Z,36.20
2018-08-12T17:17:42.512Z,36.10
2018-08-12T17:20:13.975Z,36.30
2018-08-12T17:22:43.557Z,35.90
2018-08-12T17:25:12.242Z,35.70
2018-08-12T17:27:40.537Z,35.40
2018-08-12T17:30:11.148Z,35.50
2018-08-12T17:32:39.796Z,35.00
2018-08-12T17:35:08.836Z,34.90
2018-08-12T17:37:37.411Z,34.80
2018-08-12T17:40:09.275Z,34.80
2018-08-12T17:42:37.539Z,34.70
2018-08-12T17:45:07.353Z,34.00
2018-08-12T17:47:37.126Z,32.90
2018-08-12T17:50:06.128Z,31.90
2018-08-12T17:52:34.290Z,31.30
2018-08-12T17:55:02.594Z,30.90
2018-08-12T17:57:31.117Z,30.40
2018-08-12T17:59:59.850Z,30.20
2018-08-12T18:02:28.264Z,29.90
2018-08-12T18:04:56.520Z,29.60
2018-08-12T18:07:24.813Z,29.40
2018-08-12T18:09:53.068Z,29.20
2018-08-12T18:12:21.784Z,29.00
2018-08-12T18:14:50.175Z,28.80
2018-08-12T18:17:18.637Z,28.60
2018-08-12T18:19:47.285Z,28.60
2018-08-12T18:22:16.802Z,28.40
2018-08-12T18:24:45.202Z,28.20
2018-08-12T18:27:13.521Z,28.20
2018-08-12T18:29:41.829Z,28.00
2018-08-12T18:32:10.096Z,28.00
2018-08-12T18:34:38.462Z,27.80
2018-08-12T18:37:06.945Z,27.70
2018-08-12T18:39:35.206Z,27.10
2018-08-12T18:42:03.453Z,27.50
2018-08-12T18:44:31.652Z,27.30
2018-08-12T18:47:00.005Z,27.20
2018-08-12T18:49:28.301Z,27.00
2018-08-12T18:51:56.721Z,27.00
2018-08-12T18:54:25.278Z,26.90
2018-08-12T18:56:53.521Z,26.90
2018-08-12T18:59:22.200Z,26.80
2018-08-12T19:01:50.520Z,26.70
2018-08-12T19:04:18.706Z,26.50
2018-08-12T19:06:47.002Z,26.40
2018-08-12T19:09:15.404Z,26.30
2018-08-12T19:11:43.625Z,26.20
2018-08-12T19:14:12.163Z,26.20
2018-08-12T19:16:40.513Z,26.20
2018-08-12T19:19:08.732Z,25.80
2018-08-12T19:21:37.216Z,25.90
2018-08-12T19:24:05.489Z,25.80
2018-08-12T19:26:33.717Z,25.70
2018-08-12T19:29:02.499Z,25.60
2018-08-12T19:31:30.875Z,25.30
2018-08-12T19:33:59.592Z,25.30
2018-08-12T19:36:27.828Z,25.10
2018-08-12T19:38:55.988Z,25.20
2018-08-12T19:41:24.296Z,25.10
2018-08-12T19:43:52.443Z,25.10
2018-08-12T19:46:20.817Z,25.10
2018-08-12T19:48:49.224Z,24.90
2018-08-12T19:51:17.899Z,24.80
2018-08-12T19:53:46.282Z,24.60
2018-08-12T19:56:14.448Z,24.60
2018-08-12T19:58:42.654Z,24.60
2018-08-12T20:01:11.193Z,24.50
2018-08-12T20:03:39.353Z,24.50
2018-08-12T20:06:07.722Z,24.40
2018-08-12T20:08:35.916Z,24.30
2018-08-12T20:11:04.176Z,24.20
2018-08-12T20:13:32.628Z,24.10
2018-08-12T20:16:01.432Z,24.10
2018-08-12T20:18:30.306Z,24.00
2018-08-12T20:20:59.209Z,23.90
2018-08-12T20:23:28.201Z,23.90
2018-08-12T20:25:56.724Z,23.80
2018-08-12T20:28:25.883Z,23.70
2018-08-12T20:30:54.418Z,23.60
2018-08-12T20:33:24.094Z,23.60
2018-08-12T20:35:52.759Z,23.60
2018-08-12T20:38:22.453Z,23.50
2018-08-12T20:40:50.837Z,23.50
2018-08-12T20:43:23.176Z,23.40
2018-08-12T20:45:51.328Z,23.40
2018-08-12T20:48:19.861Z,23.40
2018-08-12T20:50:48.102Z,23.30
2018-08-12T20:53:16.277Z,23.20
2018-08-12T20:55:44.589Z,23.20
2018-08-12T20:58:12.801Z,23.20
2018-08-12T21:00:40.646Z,23.10
2018-08-12T21:03:08.816Z,23.00
2018-08-12T21:05:37.068Z,23.00
2018-08-12T21:08:05.255Z,23.00
2018-08-12T21:10:33.513Z,23.10
2018-08-12T21:13:01.747Z,23.10
2018-08-12T21:15:29.953Z,22.80
2018-08-12T21:17:58.474Z,22.80
2018-08-12T21:20:27.066Z,22.80
2018-08-12T21:22:55.270Z,22.80
2018-08-12T21:25:24.017Z,22.80
2018-08-12T21:27:52.239Z,22.70
2018-08-12T21:30:20.670Z,22.60
2018-08-12T21:32:49.502Z,22.60
2018-08-12T21:35:18.248Z,22.60
2018-08-12T21:37:47.945Z,22.60
2018-08-12T21:40:16.159Z,22.50
2018-08-12T21:42:44.713Z,22.40
2018-08-12T21:45:13.051Z,22.40
2018-08-12T21:47:41.585Z,22.40
2018-08-12T21:50:10.133Z,22.40
2018-08-12T21:52:38.616Z,22.30
2018-08-12T21:55:07.160Z,22.30
2018-08-12T21:57:35.704Z,22.30
2018-08-12T22:00:10.000Z,22.30
2018-08-12T22:02:38.565Z,22.50
2018-08-12T22:05:07.017Z,22.30
2018-08-12T22:07:35.275Z,22.30
2018-08-12T22:10:04.412Z,22.30
2018-08-12T22:12:32.757Z,22.20
2018-08-12T22:15:00.960Z,22.10
2018-08-12T22:17:29.514Z,22.00
2018-08-12T22:19:58.486Z,21.90
2018-08-12T22:22:27.029Z,21.80
2018-08-12T22:24:55.252Z,21.60
2018-08-12T22:27:23.728Z,21.50
2018-08-12T22:29:52.230Z,21.50
2018-08-12T22:32:20.726Z,21.50
2018-08-12T22:34:48.896Z,21.50
2018-08-12T22:37:17.344Z,21.50
2018-08-12T22:39:45.725Z,21.50
2018-08-12T22:42:14.439Z,21.40
2018-08-12T22:44:42.820Z,21.40
2018-08-12T22:47:11.464Z,21.30
2018-08-12T22:49:40.252Z,21.20
2018-08-12T22:52:09.621Z,21.20
2018-08-12T22:54:38.448Z,21.20
2018-08-12T22:59:35.769Z,21.10
2018-08-12T23:02:04.705Z,21.10
2018-08-12T23:07:01.085Z,21.00
2018-08-12T23:09:29.386Z,21.00
2018-08-12T23:11:58.124Z,21.00
2018-08-12T23:14:26.589Z,20.90
2018-08-12T23:17:00.148Z,20.80
2018-08-12T23:19:29.061Z,20.80
2018-08-12T23:21:58.599Z,20.40
2018-08-12T23:24:27.133Z,20.70
2018-08-12T23:26:55.406Z,22.30
2018-08-12T23:29:23.683Z,20.70
2018-08-12T23:31:52.307Z,20.60
2018-08-12T23:34:20.558Z,20.40
2018-08-12T23:36:48.875Z,20.50
2018-08-12T23:39:17.089Z,20.50
2018-08-12T23:41:45.350Z,20.40
2018-08-12T23:44:13.616Z,20.50
2018-08-12T23:46:41.957Z,20.40
2018-08-12T23:49:10.219Z,20.40
2018-08-12T23:51:38.430Z,20.40
2018-08-12T23:54:06.707Z,20.30
2018-08-12T23:56:34.890Z,20.30
2018-08-12T23:59:03.329Z,20.20
